Time;durP1;ratioP1;P1;durP2;ratioP2;P2;SDS_P1;SDS_P2;PMS_P1;PMS_P2;Temp;Humidity;BMP_temperature;BMP_pressure;BME280_temperature;BME280_humidity;BME280_pressure;Samples;Min_cycle;Max_cycle;Signal;HPM_P1;HPM_P2
2023/04/04 00:01:38;;;;;;;4.28;1.33;;;4.20;99.90;;;;;;5005400;28;20073;-73
2023/04/04 00:04:03;;;;;;;5.63;1.10;;;4.20;99.90;;;;;;5001589;28;20033;-76
2023/04/04 00:06:29;;;;;;;3.78;1.35;;;4.10;99.80;;;;;;5004278;28;20033;-73
2023/04/04 00:08:55;;;;;;;2.47;1.10;;;4.00;99.90;;;;;;5019682;28;20037;-74
2023/04/04 00:11:21;;;;;;;3.08;0.70;;;4.00;99.90;;;;;;5002998;28;20033;-74
2023/04/04 00:13:46;;;;;;;5.05;1.02;;;4.00;99.90;;;;;;5005375;28;20085;-74
2023/04/04 00:16:12;;;;;;;3.60;1.33;;;4.00;99.90;;;;;;5002431;28;20529;-75
2023/04/04 00:18:38;;;;;;;2.53;0.85;;;3.90;99.90;;;;;;5002564;28;20066;-73
2023/04/04 00:21:03;;;;;;;2.60;0.98;;;3.80;99.90;;;;;;5010759;28;20061;-73
2023/04/04 00:23:32;;;;;;;1.52;0.68;;;3.90;99.90;;;;;;5003888;28;20029;-75
2023/04/04 00:25:57;;;;;;;6.45;1.00;;;3.90;99.90;;;;;;5004542;28;20053;-77
2023/04/04 00:28:23;;;;;;;3.65;1.10;;;3.80;99.90;;;;;;5001425;28;20570;-74
2023/04/04 00:30:49;;;;;;;2.97;1.23;;;3.70;99.90;;;;;;5002892;28;20041;-72
2023/04/04 00:33:14;;;;;;;2.58;1.40;;;3.70;99.90;;;;;;4998120;28;20033;-74
2023/04/04 00:35:40;;;;;;;4.28;1.10;;;3.70;99.90;;;;;;5003868;28;20041;-75
2023/04/04 00:38:08;;;;;;;3.63;1.10;;;3.60;99.90;;;;;;5001785;28;20465;-76
2023/04/04 00:40:44;;;;;;;4.30;1.48;;;3.60;99.90;;;;;;5004749;28;20061;-74
2023/04/04 00:43:10;;;;;;;3.20;0.93;;;3.60;99.90;;;;;;5001396;28;20139;-74
2023/04/04 00:45:36;;;;;;;5.35;1.00;;;3.60;99.90;;;;;;5003435;28;20125;-75
2023/04/04 00:48:02;;;;;;;7.05;1.38;;;3.60;99.90;;;;;;5002052;28;20030;-75
2023/04/04 00:50:28;;;;;;;4.47;1.17;;;3.60;99.90;;;;;;5004508;28;20042;-73
2023/04/04 00:52:54;;;;;;;4.30;1.10;;;3.50;99.90;;;;;;5022316;28;20379;-75
2023/04/04 00:55:19;;;;;;;3.92;1.10;;;3.50;99.90;;;;;;5002544;28;20128;-74
2023/04/04 00:57:45;;;;;;;2.22;1.02;;;3.50;99.90;;;;;;5019372;28;20038;-74
2023/04/04 01:00:12;;;;;;;3.88;1.42;;;3.50;99.90;;;;;;4999349;28;20038;-74
2023/04/04 01:02:38;;;;;;;2.05;1.08;;;3.40;99.90;;;;;;5004458;28;20064;-75
2023/04/04 01:05:04;;;;;;;6.65;1.27;;;3.40;99.90;;;;;;5000131;28;20056;-74
2023/04/04 01:07:30;;;;;;;2.17;0.82;;;3.30;99.90;;;;;;5028283;28;20137;-74
2023/04/04 01:09:57;;;;;;;4.43;1.13;;;3.30;99.90;;;;;;4999221;28;20095;-74
2023/04/04 01:12:23;;;;;;;4.38;1.58;;;3.30;99.90;;;;;;5002451;28;20533;-73
2023/04/04 01:14:48;;;;;;;2.95;1.27;;;3.20;99.90;;;;;;5018959;28;20038;-75
2023/04/04 01:17:14;;;;;;;4.68;1.85;;;3.20;99.90;;;;;;5002747;28;20064;-74
2023/04/04 01:19:52;;;;;;;6.65;1.42;;;3.20;99.90;;;;;;5002085;28;20038;-74
2023/04/04 01:22:18;;;;;;;3.58;1.10;;;3.10;99.90;;;;;;5023755;28;20042;-74
2023/04/04 01:24:45;;;;;;;3.67;1.50;;;3.10;99.90;;;;;;4991632;28;20058;-73
2023/04/04 01:27:12;;;;;;;2.70;0.85;;;3.10;99.90;;;;;;4992250;28;21970;-75
2023/04/04 01:29:37;;;;;;;5.32;1.52;;;3.10;99.90;;;;;;4996350;28;20060;-71
2023/04/04 01:32:10;;;;;;;2.67;1.15;;;3.20;99.90;;;;;;4997033;28;20034;-75
2023/04/04 01:34:59;;;;;;;1.80;1.05;;;3.10;99.90;;;;;;4996807;28;20034;-74
2023/04/04 01:37:51;;;;;;;3.65;0.90;;;3.10;99.90;;;;;;4991341;28;20134;-74
2023/04/04 01:40:23;;;;;;;2.00;1.08;;;3.10;99.90;;;;;;4992325;28;20142;-73
2023/04/04 01:42:50;;;;;;;5.20;1.63;;;3.10;99.90;;;;;;4993105;28;20038;-74
2023/04/04 01:45:16;;;;;;;6.32;1.25;;;3.00;99.90;;;;;;4992734;28;20057;-73
2023/04/04 01:47:42;;;;;;;1.85;1.00;;;3.00;99.90;;;;;;4996583;28;20781;-74
2023/04/04 01:50:09;;;;;;;2.22;0.93;;;3.00;99.90;;;;;;5000679;28;20461;-75
2023/04/04 01:52:35;;;;;;;3.22;1.15;;;3.00;99.90;;;;;;4991231;28;20058;-72
2023/04/04 01:55:02;;;;;;;4.75;1.88;;;3.00;99.90;;;;;;4990706;28;20042;-75
2023/04/04 01:57:28;;;;;;;5.13;0.90;;;3.00;99.90;;;;;;4992344;28;20037;-74
2023/04/04 01:59:53;;;;;;;2.47;1.25;;;3.00;99.90;;;;;;4994136;28;20034;-73
2023/04/04 02:02:19;;;;;;;3.88;1.63;;;2.90;99.90;;;;;;4996239;28;20117;-75
2023/04/04 02:04:44;;;;;;;3.92;1.80;;;2.90;99.90;;;;;;4990058;28;20455;-77
2023/04/04 02:07:10;;;;;;;4.38;1.20;;;2.80;99.90;;;;;;4993310;28;20050;-74
2023/04/04 02:09:36;;;;;;;3.83;1.10;;;2.70;99.90;;;;;;4991239;28;20042;-74
2023/04/04 02:12:01;;;;;;;3.13;1.10;;;2.70;99.90;;;;;;4994863;28;20030;-74
2023/04/04 02:14:27;;;;;;;5.00;1.33;;;2.70;99.90;;;;;;4990263;28;20030;-73
2023/04/04 02:16:53;;;;;;;5.18;0.98;;;2.70;99.90;;;;;;4994138;28;20088;-73
2023/04/04 02:19:18;;;;;;;2.92;1.10;;;2.70;99.90;;;;;;4990232;28;20701;-75
2023/04/04 02:21:44;;;;;;;10.95;1.50;;;2.60;99.90;;;;;;4998329;28;20060;-74
2023/04/04 02:24:10;;;;;;;4.60;1.50;;;2.60;99.90;;;;;;4992463;28;20498;-74
2023/04/04 02:26:36;;;;;;;1.95;1.13;;;2.60;99.90;;;;;;4996577;28;20045;-74
2023/04/04 02:29:02;;;;;;;2.42;0.95;;;2.50;99.90;;;;;;4991413;28;20034;-76
2023/04/04 02:31:28;;;;;;;4.20;1.95;;;2.50;99.90;;;;;;4991813;28;20034;-73
2023/04/04 02:33:53;;;;;;;6.53;1.52;;;2.40;99.90;;;;;;4993820;28;20943;-72
2023/04/04 02:36:19;;;;;;;3.13;1.55;;;2.30;99.90;;;;;;4993887;28;20109;-74
2023/04/04 02:38:44;;;;;;;2.35;1.27;;;2.30;99.90;;;;;;5002086;28;20380;-74
2023/04/04 02:41:10;;;;;;;4.68;1.25;;;2.20;99.90;;;;;;5005574;28;20079;-75
2023/04/04 02:43:36;;;;;;;2.83;1.08;;;2.20;99.90;;;;;;5005683;28;20104;-74
2023/04/04 02:46:01;;;;;;;3.55;1.52;;;2.20;99.90;;;;;;5005333;28;20170;-74
2023/04/04 02:48:27;;;;;;;6.50;1.67;;;2.30;99.90;;;;;;5008625;28;20041;-74
2023/04/04 02:50:53;;;;;;;3.30;1.17;;;2.30;99.90;;;;;;5006717;28;20030;-72
2023/04/04 02:53:22;;;;;;;4.35;1.35;;;2.20;99.90;;;;;;5006742;28;20083;-74
2023/04/04 02:55:47;;;;;;;3.28;1.75;;;2.30;99.90;;;;;;5002654;28;20072;-75
2023/04/04 02:58:13;;;;;;;6.10;1.27;;;2.30;99.90;;;;;;5005126;28;20512;-73
2023/04/04 03:00:39;;;;;;;3.17;1.30;;;2.30;99.90;;;;;;5000673;28;20037;-76
2023/04/04 03:03:04;;;;;;;3.35;1.25;;;2.40;99.90;;;;;;5005166;28;20042;-74
2023/04/04 03:05:30;;;;;;;6.65;2.05;;;2.40;99.90;;;;;;5000646;28;20403;-76
2023/04/04 03:07:57;;;;;;;3.53;1.15;;;2.40;99.90;;;;;;5005297;28;20478;-74
2023/04/04 03:10:28;;;;;;;4.70;1.73;;;2.40;99.90;;;;;;5001734;28;20069;-75
2023/04/04 03:12:54;;;;;;;5.20;1.40;;;2.40;99.90;;;;;;5007882;28;20058;-75
2023/04/04 03:15:20;;;;;;;4.93;1.80;;;2.40;99.90;;;;;;4995662;28;20069;-74
2023/04/04 03:17:46;;;;;;;3.20;1.35;;;2.40;99.90;;;;;;4998022;28;20034;-75
2023/04/04 03:20:13;;;;;;;3.25;1.10;;;2.30;99.90;;;;;;4994160;28;20041;-74
2023/04/04 03:22:40;;;;;;;6.43;1.80;;;2.30;99.90;;;;;;5000408;28;20108;-74
2023/04/04 03:25:06;;;;;;;3.90;1.38;;;2.20;99.90;;;;;;4999347;28;20502;-75
2023/04/04 03:27:31;;;;;;;6.32;1.80;;;2.30;99.90;;;;;;4999373;28;20037;-75
2023/04/04 03:30:01;;;;;;;2.90;1.15;;;2.30;99.90;;;;;;4993530;28;20058;-74
2023/04/04 03:32:27;;;;;;;6.15;1.75;;;2.20;99.90;;;;;;5017508;28;20088;-74
2023/04/04 03:34:53;;;;;;;4.50;1.30;;;2.20;99.90;;;;;;4996259;28;20038;-73
2023/04/04 03:37:19;;;;;;;3.22;1.67;;;2.10;99.90;;;;;;5002734;28;20037;-74
2023/04/04 03:39:44;;;;;;;13.75;1.77;;;2.10;99.90;;;;;;5014374;28;20058;-75
2023/04/04 03:42:11;;;;;;;3.90;1.73;;;2.00;99.90;;;;;;4997026;28;20089;-74
2023/04/04 03:44:40;;;;;;;2.33;1.17;;;2.00;99.90;;;;;;4995493;28;20046;-74
2023/04/04 03:47:05;;;;;;;4.82;1.75;;;1.90;99.90;;;;;;4993564;28;20039;-74
2023/04/04 03:49:32;;;;;;;5.15;1.48;;;1.90;99.90;;;;;;5002976;28;20084;-74
2023/04/04 03:51:58;;;;;;;4.85;1.50;;;1.80;99.90;;;;;;4998252;28;20050;-74
2023/04/04 03:54:23;;;;;;;2.90;1.45;;;1.80;99.90;;;;;;5002781;28;20040;-76
2023/04/04 03:56:50;;;;;;;3.05;1.20;;;1.70;99.90;;;;;;4998566;28;20038;-74
2023/04/04 03:59:16;;;;;;;4.47;1.80;;;1.70;99.90;;;;;;4994876;28;20072;-74
2023/04/04 04:01:41;;;;;;;10.60;1.70;;;1.70;99.90;;;;;;4997038;28;21676;-73
2023/04/04 04:04:07;;;;;;;3.20;1.17;;;1.70;99.90;;;;;;4997896;28;20034;-75
2023/04/04 04:06:33;;;;;;;6.03;2.00;;;1.60;99.90;;;;;;5011409;28;20034;-73
2023/04/04 04:08:58;;;;;;;3.63;1.27;;;1.60;99.90;;;;;;5020436;28;20121;-75
2023/04/04 04:11:24;;;;;;;4.68;1.63;;;1.60;99.90;;;;;;4994513;28;20394;-75
2023/04/04 04:13:49;;;;;;;5.40;1.85;;;1.50;99.90;;;;;;5011964;28;20030;-74
2023/04/04 04:16:15;;;;;;;2.45;1.40;;;1.50;99.90;;;;;;5000233;28;20061;-74
2023/04/04 04:18:40;;;;;;;7.65;1.52;;;1.40;99.90;;;;;;4996724;28;20049;-74
2023/04/04 04:21:06;;;;;;;5.47;1.95;;;1.30;99.90;;;;;;4994397;28;20031;-74
2023/04/04 04:23:31;;;;;;;4.72;1.77;;;1.30;99.90;;;;;;4998051;28;20041;-73
2023/04/04 04:25:57;;;;;;;3.08;1.48;;;1.20;99.90;;;;;;4994465;28;20037;-74
2023/04/04 04:28:23;;;;;;;3.72;1.35;;;1.20;99.90;;;;;;4997022;28;20108;-74
2023/04/04 04:30:49;;;;;;;3.10;1.40;;;1.20;99.90;;;;;;4999934;28;20038;-74
2023/04/04 04:33:15;;;;;;;9.27;1.42;;;1.10;99.90;;;;;;5016880;28;20105;-74
2023/04/04 04:35:41;;;;;;;5.78;1.77;;;1.10;99.90;;;;;;5000924;28;20077;-75
2023/04/04 04:38:07;;;;;;;3.42;1.83;;;1.00;99.90;;;;;;5003031;28;20026;-74
2023/04/04 04:40:33;;;;;;;5.72;1.85;;;1.00;99.90;;;;;;5003733;28;20042;-73
2023/04/04 04:42:58;;;;;;;3.35;1.65;;;1.00;99.90;;;;;;5005391;28;20042;-74
2023/04/04 04:45:24;;;;;;;3.78;1.63;;;0.90;99.90;;;;;;5006350;28;20048;-71
2023/04/04 04:47:50;;;;;;;3.00;1.52;;;0.90;99.90;;;;;;5011451;28;20688;-72
2023/04/04 04:50:16;;;;;;;3.30;1.70;;;0.90;99.90;;;;;;5008739;28;20037;-73
2023/04/04 04:52:42;;;;;;;5.93;1.95;;;0.90;99.90;;;;;;4998290;28;20053;-74
2023/04/04 04:55:08;;;;;;;6.85;2.22;;;0.90;99.90;;;;;;5004346;28;20042;-73
2023/04/04 04:57:33;;;;;;;6.07;1.80;;;0.90;99.90;;;;;;5000335;28;20034;-73
2023/04/04 05:00:00;;;;;;;4.60;1.80;;;0.90;99.90;;;;;;5005665;28;20127;-72
2023/04/04 05:02:26;;;;;;;5.55;1.92;;;0.90;99.90;;;;;;5010921;28;20113;-72
2023/04/04 05:04:52;;;;;;;4.60;1.80;;;0.80;99.90;;;;;;4995444;28;20054;-73
2023/04/04 05:07:17;;;;;;;3.50;2.00;;;0.80;99.90;;;;;;4998800;28;20030;-72
2023/04/04 05:09:43;;;;;;;3.58;1.70;;;0.80;99.90;;;;;;5004250;28;20038;-74
2023/04/04 05:12:09;;;;;;;7.47;1.60;;;0.90;99.90;;;;;;5002367;28;20083;-74
2023/04/04 05:14:34;;;;;;;6.93;2.47;;;0.90;99.90;;;;;;5004882;28;20049;-74
2023/04/04 05:17:00;;;;;;;7.22;1.65;;;0.90;99.90;;;;;;5003330;28;20045;-72
2023/04/04 05:19:26;;;;;;;12.75;3.25;;;0.80;99.90;;;;;;5025069;28;20093;-72
2023/04/04 05:21:52;;;;;;;5.80;2.10;;;0.80;99.90;;;;;;5025592;28;20034;-72
2023/04/04 05:24:18;;;;;;;5.65;2.85;;;0.90;99.90;;;;;;4999919;28;20872;-73
2023/04/04 05:26:44;;;;;;;5.00;1.80;;;0.90;99.90;;;;;;5002045;28;20100;-75
2023/04/04 05:29:10;;;;;;;8.43;2.45;;;0.90;99.90;;;;;;5001090;28;20064;-73
2023/04/04 05:31:36;;;;;;;6.30;2.00;;;1.00;99.90;;;;;;5001127;28;20070;-73
2023/04/04 05:34:06;;;;;;;5.88;2.20;;;1.00;99.90;;;;;;5001565;28;20042;-74
2023/04/04 05:36:35;;;;;;;;;;;1.00;99.90;;;;;;5001376;28;20095;-72
2023/04/04 05:39:03;;;;;;;7.35;1.73;;;1.00;99.90;;;;;;4999234;28;19922;-72
2023/04/04 05:41:29;;;;;;;10.57;2.10;;;1.10;99.90;;;;;;5001319;28;20034;-74
2023/04/04 05:43:55;;;;;;;3.95;1.70;;;1.00;99.90;;;;;;5001050;28;20476;-73
2023/04/04 05:46:20;;;;;;;4.60;1.90;;;1.10;99.90;;;;;;4999016;28;20117;-72
2023/04/04 05:48:46;;;;;;;3.92;2.38;;;1.10;99.90;;;;;;4999924;28;20870;-75
2023/04/04 05:51:12;;;;;;;8.57;1.95;;;1.10;99.90;;;;;;5000255;28;20046;-72
2023/04/04 05:53:37;;;;;;;4.53;1.52;;;1.20;99.90;;;;;;5001660;28;20065;-73
2023/04/04 05:56:03;;;;;;;3.60;1.90;;;1.50;99.90;;;;;;5000697;28;20030;-74
2023/04/04 05:58:28;;;;;;;4.03;1.70;;;1.80;99.90;;;;;;5001274;28;20026;-76
2023/04/04 06:00:54;;;;;;;6.07;1.98;;;2.10;99.90;;;;;;5000208;28;20675;-73
2023/04/04 06:03:20;;;;;;;7.57;2.20;;;2.20;99.90;;;;;;4999951;28;20065;-73
2023/04/04 06:05:51;;;;;;;4.35;1.95;;;2.50;99.90;;;;;;5002098;28;20065;-73
2023/04/04 06:08:16;;;;;;;6.45;1.70;;;3.00;99.90;;;;;;4999517;28;20092;-73
2023/04/04 06:10:42;;;;;;;5.00;1.73;;;3.80;99.90;;;;;;5002313;28;20042;-72
2023/04/04 06:13:08;;;;;;;8.02;1.50;;;4.90;99.90;;;;;;5004061;28;20034;-72
2023/04/04 06:15:33;;;;;;;7.32;1.50;;;5.70;99.90;;;;;;5001484;28;20053;-74
2023/04/04 06:17:59;;;;;;;5.53;1.65;;;6.40;99.90;;;;;;5003915;28;20245;-73
2023/04/04 06:20:25;;;;;;;6.00;1.70;;;7.20;99.90;;;;;;5003914;28;20526;-72
2023/04/04 06:22:50;;;;;;;9.43;1.30;;;7.60;99.90;;;;;;5003732;28;20128;-72
2023/04/04 06:25:16;;;;;;;5.63;1.55;;;7.30;99.90;;;;;;5002870;28;20501;-74
2023/04/04 06:27:45;;;;;;;4.10;1.10;;;6.70;99.90;;;;;;5003147;28;20116;-73
2023/04/04 06:30:13;;;;;;;4.55;1.25;;;6.10;99.90;;;;;;5001086;28;20033;-73
2023/04/04 06:32:38;;;;;;;4.30;1.40;;;6.20;99.90;;;;;;5004701;28;20050;-74
2023/04/04 06:35:05;;;;;;;5.68;1.60;;;7.10;99.90;;;;;;5002086;28;20037;-73
2023/04/04 06:37:30;;;;;;;4.70;1.08;;;8.10;99.90;;;;;;5003408;28;20091;-73
2023/04/04 06:39:56;;;;;;;4.00;1.65;;;9.00;99.90;;;;;;5003500;28;20038;-72
2023/04/04 06:42:21;;;;;;;4.47;1.40;;;9.40;99.20;;;;;;5002901;28;20076;-72
2023/04/04 06:44:47;;;;;;;3.40;1.30;;;9.50;98.10;;;;;;5002963;28;20037;-73
2023/04/04 06:47:13;;;;;;;6.93;1.85;;;9.70;97.40;;;;;;5001631;28;20045;-73
2023/04/04 06:49:39;;;;;;;7.22;1.92;;;9.60;96.60;;;;;;5002979;28;20153;-72
2023/04/04 06:52:05;;;;;;;5.40;1.20;;;9.40;97.00;;;;;;5003292;28;20140;-72
2023/04/04 06:54:30;;;;;;;6.18;1.17;;;9.20;96.50;;;;;;5004239;28;20042;-72
2023/04/04 06:56:56;;;;;;;2.42;1.08;;;8.90;96.50;;;;;;5004442;28;20065;-73
2023/04/04 06:59:21;;;;;;;5.70;1.40;;;8.60;96.80;;;;;;5001693;28;20111;-72
2023/04/04 07:01:47;;;;;;;3.55;1.63;;;8.20;98.40;;;;;;5003932;28;20038;-72
2023/04/04 07:04:12;;;;;;;7.88;1.60;;;7.90;98.50;;;;;;5002794;28;20045;-72
2023/04/04 07:06:38;;;;;;;7.22;1.63;;;7.60;98.30;;;;;;5003415;28;20041;-72
2023/04/04 07:09:03;;;;;;;4.38;1.45;;;7.50;98.60;;;;;;5001871;28;20030;-73
2023/04/04 07:11:30;;;;;;;6.50;1.83;;;7.40;98.90;;;;;;5003903;28;20134;-72
2023/04/04 07:13:55;;;;;;;4.05;1.30;;;7.20;99.90;;;;;;5002666;28;20038;-74
2023/04/04 07:16:21;;;;;;;4.97;1.45;;;7.10;99.80;;;;;;5001236;28;20110;-72
2023/04/04 07:18:46;;;;;;;5.07;2.05;;;7.00;99.90;;;;;;5001644;28;20091;-72
2023/04/04 07:21:12;;;;;;;14.70;1.90;;;7.00;99.70;;;;;;5002619;28;20125;-75
2023/04/04 07:23:38;;;;;;;4.10;1.45;;;7.00;99.50;;;;;;5003219;28;20026;-72
2023/04/04 07:26:03;;;;;;;6.25;1.63;;;6.90;99.90;;;;;;4998984;28;20030;-72
2023/04/04 07:28:30;;;;;;;4.50;1.77;;;6.80;99.90;;;;;;5002547;28;20069;-73
2023/04/04 07:30:59;;;;;;;3.67;1.50;;;6.80;99.90;;;;;;4999982;28;20084;-73
2023/04/04 07:33:26;;;;;;;4.35;1.38;;;6.90;99.90;;;;;;4999662;28;20049;-71
2023/04/04 07:35:52;;;;;;;5.50;1.55;;;6.90;99.90;;;;;;5002250;28;20037;-72
2023/04/04 07:38:17;;;;;;;3.75;1.38;;;7.00;99.90;;;;;;5003766;28;20034;-73
2023/04/04 07:40:43;;;;;;;2.92;1.17;;;7.00;99.50;;;;;;5001940;28;20037;-72
2023/04/04 07:43:08;;;;;;;5.07;1.65;;;7.10;99.90;;;;;;5001703;28;20702;-72
2023/04/04 07:45:34;;;;;;;1.92;1.25;;;7.20;99.70;;;;;;5001309;28;20042;-73
2023/04/04 07:48:00;;;;;;;4.95;1.42;;;7.20;99.20;;;;;;5002525;28;20049;-72
2023/04/04 07:50:26;;;;;;;3.90;1.33;;;7.20;99.10;;;;;;5001571;28;20041;-73
2023/04/04 07:52:53;;;;;;;3.78;1.30;;;7.40;99.00;;;;;;5000436;28;20034;-71
2023/04/04 07:55:19;;;;;;;7.35;1.23;;;7.50;98.30;;;;;;5001226;28;20796;-74
2023/04/04 07:57:45;;;;;;;4.70;0.90;;;7.60;97.00;;;;;;5001837;28;20053;-72
2023/04/04 08:00:16;;;;;;;3.75;1.35;;;7.70;95.50;;;;;;5001465;28;20033;-73
2023/04/04 08:02:44;;;;;;;3.92;1.42;;;7.80;94.90;;;;;;5014365;28;20060;-72
2023/04/04 08:05:10;;;;;;;3.95;1.00;;;7.90;93.60;;;;;;5001401;28;20827;-73
2023/04/04 08:07:35;;;;;;;5.50;1.27;;;8.00;93.90;;;;;;5000340;28;20053;-73
2023/04/04 08:10:01;;;;;;;2.72;0.77;;;8.00;93.00;;;;;;4999673;28;20040;-72
2023/04/04 08:12:26;;;;;;;3.60;1.13;;;8.10;93.40;;;;;;5003985;28;20030;-73
2023/04/04 08:14:52;;;;;;;3.70;0.70;;;8.10;92.80;;;;;;4999427;28;20112;-73
2023/04/04 08:17:19;;;;;;;1.92;0.70;;;8.20;93.70;;;;;;5001651;28;20115;-72
2023/04/04 08:19:45;;;;;;;4.22;1.25;;;8.30;93.00;;;;;;5000067;28;20057;-72
2023/04/04 08:22:11;;;;;;;7.28;1.75;;;8.40;93.30;;;;;;4999713;28;20033;-74
2023/04/04 08:24:36;;;;;;;3.85;0.60;;;8.50;92.80;;;;;;5001865;28;20394;-74
2023/04/04 08:27:03;;;;;;;2.15;0.60;;;8.60;92.30;;;;;;5001611;28;20038;-72
2023/04/04 08:29:31;;;;;;;5.35;1.20;;;8.70;90.70;;;;;;5000458;28;20379;-75
2023/04/04 08:31:57;;;;;;;4.78;1.15;;;8.80;90.70;;;;;;5000103;28;20065;-74
2023/04/04 08:34:22;;;;;;;2.75;0.95;;;8.80;91.70;;;;;;4998689;28;20125;-73
2023/04/04 08:36:48;;;;;;;11.10;2.47;;;8.90;91.50;;;;;;4999451;28;20103;-73
2023/04/04 08:39:13;;;;;;;2.65;0.65;;;9.00;91.90;;;;;;5000118;28;20038;-72
2023/04/04 08:41:44;;;;;;;14.82;1.85;;;9.00;91.40;;;;;;5001676;28;20095;-73
2023/04/04 08:44:20;;;;;;;4.55;0.75;;;9.00;91.10;;;;;;5000174;28;20026;-72
2023/04/04 08:46:48;;;;;;;2.92;0.98;;;9.00;90.40;;;;;;4999875;28;20033;-72
2023/04/04 08:49:15;;;;;;;1.80;0.40;;;9.00;90.60;;;;;;4999914;28;20038;-72
2023/04/04 08:51:43;;;;;;;1.25;0.32;;;9.10;90.20;;;;;;4998917;28;20042;-73
2023/04/04 08:54:18;;;;;;;6.28;0.95;;;9.10;89.50;;;;;;5031424;28;20135;-69
2023/04/04 08:56:44;;;;;;;7.28;0.85;;;9.00;90.00;;;;;;5010287;28;20061;-68
2023/04/04 08:59:14;;;;;;;1.77;0.40;;;9.00;88.50;;;;;;5008640;28;20034;-68
2023/04/04 09:01:40;;;;;;;2.35;0.40;;;9.00;89.10;;;;;;5013288;28;20505;-68
2023/04/04 09:04:07;;;;;;;3.25;0.50;;;9.00;88.60;;;;;;5002092;28;20104;-69
2023/04/04 09:06:33;;;;;;;1.95;0.75;;;9.00;89.30;;;;;;5014087;28;20625;-69
2023/04/04 09:09:00;;;;;;;1.55;0.70;;;9.00;89.10;;;;;;5008166;28;20044;-70
2023/04/04 09:11:30;;;;;;;4.95;0.70;;;9.10;89.80;;;;;;5008192;28;20180;-68
2023/04/04 09:13:57;;;;;;;2.33;0.70;;;9.10;89.90;;;;;;5016937;28;20038;-68
2023/04/04 09:16:23;;;;;;;4.13;0.80;;;9.20;88.70;;;;;;5001831;28;21606;-69
2023/04/04 09:18:49;;;;;;;1.42;0.60;;;9.10;89.90;;;;;;5013100;28;20034;-70
2023/04/04 09:21:14;;;;;;;3.42;0.70;;;9.10;89.60;;;;;;5009619;28;20040;-69
2023/04/04 09:23:42;;;;;;;7.55;1.00;;;9.10;89.60;;;;;;5006182;28;20057;-68
2023/04/04 09:26:08;;;;;;;5.47;0.90;;;9.20;89.80;;;;;;5008495;28;20040;-69
2023/04/04 09:28:34;;;;;;;2.83;0.70;;;9.30;90.20;;;;;;5003141;28;20029;-69
2023/04/04 09:31:04;;;;;;;2.30;1.15;;;9.40;91.10;;;;;;5020165;28;20100;-69
2023/04/04 09:33:31;;;;;;;2.22;0.95;;;9.40;89.50;;;;;;5012001;28;20063;-69
2023/04/04 09:35:57;;;;;;;6.35;1.10;;;9.50;90.30;;;;;;5001666;28;20040;-68
2023/04/04 09:38:25;;;;;;;2.30;0.80;;;9.60;89.60;;;;;;5018049;28;20048;-68
2023/04/04 09:40:51;;;;;;;3.10;0.70;;;9.60;89.50;;;;;;5019647;28;20039;-67
2023/04/04 09:43:20;;;;;;;4.75;1.05;;;9.50;88.80;;;;;;5014804;28;20060;-70
2023/04/04 09:45:47;;;;;;;3.15;1.10;;;9.60;89.20;;;;;;5018555;28;20454;-67
2023/04/04 09:48:23;;;;;;;2.08;0.60;;;9.60;86.90;;;;;;5015989;28;20095;-67
2023/04/04 09:50:49;;;;;;;3.17;1.00;;;9.70;87.30;;;;;;5018607;28;20495;-67
2023/04/04 09:53:18;;;;;;;2.60;0.90;;;9.70;86.60;;;;;;5017439;28;20038;-68
2023/04/04 09:55:50;;;;;;;4.20;1.33;;;9.70;86.90;;;;;;5018316;28;20124;-68
2023/04/04 09:58:17;;;;;;;3.20;1.00;;;9.60;87.60;;;;;;5011134;28;20034;-68
2023/04/04 10:00:47;;;;;;;1.65;0.73;;;9.70;87.90;;;;;;5014038;28;20163;-70
2023/04/04 10:03:17;;;;;;;2.90;0.98;;;9.80;87.80;;;;;;5013850;28;20044;-68
2023/04/04 10:05:46;;;;;;;2.30;0.60;;;9.80;86.80;;;;;;5000298;28;20038;-68
2023/04/04 10:08:21;;;;;;;1.42;0.50;;;9.80;87.50;;;;;;5001986;28;20030;-69
2023/04/04 10:10:50;;;;;;;3.08;0.80;;;9.90;86.90;;;;;;5000830;28;21772;-68
2023/04/04 10:13:27;;;;;;;2.20;0.60;;;9.90;87.50;;;;;;5002255;28;20034;-67
2023/04/04 10:15:54;;;;;;;4.57;1.00;;;10.00;85.70;;;;;;5000843;28;20030;-68
2023/04/04 10:18:25;;;;;;;2.03;0.65;;;10.10;86.30;;;;;;5001415;28;20266;-68
2023/04/04 10:20:52;;;;;;;;;;;10.10;85.30;;;;;;5004774;28;20049;-70
2023/04/04 10:23:18;;;;;;;4.10;1.10;;;10.30;88.70;;;;;;5001939;28;19913;-69
2023/04/04 10:25:44;;;;;;;9.15;0.90;;;10.40;86.80;;;;;;5003095;28;20064;-70
2023/04/04 10:28:11;;;;;;;5.40;1.17;;;10.50;85.90;;;;;;5000725;28;20724;-67
2023/04/04 10:30:48;;;;;;;5.18;1.23;;;10.60;87.10;;;;;;5002423;28;20044;-68
2023/04/04 10:33:24;;;;;;;2.97;1.13;;;10.70;85.40;;;;;;4999994;28;20080;-68
2023/04/04 10:35:55;;;;;;;5.63;0.80;;;10.60;84.50;;;;;;5002195;28;20042;-68
2023/04/04 10:38:27;;;;;;;2.15;0.93;;;10.80;86.60;;;;;;5001165;28;20069;-68
2023/04/04 10:40:57;;;;;;;3.22;0.55;;;10.80;83.30;;;;;;5003027;28;20041;-68
2023/04/04 10:43:25;;;;;;;2.45;0.90;;;10.70;84.70;;;;;;5000528;28;20187;-68
2023/04/04 10:45:51;;;;;;;6.25;0.90;;;10.60;86.80;;;;;;5002030;28;20026;-70
2023/04/04 10:48:17;;;;;;;1.38;0.70;;;10.70;83.50;;;;;;4999360;28;20036;-69
2023/04/04 10:50:43;;;;;;;3.17;1.40;;;10.70;82.40;;;;;;5004099;28;20117;-69
2023/04/04 10:53:09;;;;;;;2.78;0.80;;;10.70;84.20;;;;;;5000020;28;20128;-70
2023/04/04 10:55:37;;;;;;;6.32;1.70;;;10.70;82.10;;;;;;5000375;28;20642;-67
2023/04/04 10:58:03;;;;;;;2.28;0.77;;;10.60;80.60;;;;;;5002278;28;20119;-69
2023/04/04 11:00:29;;;;;;;3.10;1.20;;;10.30;80.60;;;;;;5003133;28;20132;-69
2023/04/04 11:03:00;;;;;;;6.10;1.15;;;10.30;82.30;;;;;;5001574;28;20037;-69
2023/04/04 11:05:36;;;;;;;3.40;0.93;;;10.10;82.70;;;;;;5002370;28;20034;-68
2023/04/04 11:08:04;;;;;;;3.17;0.98;;;10.00;82.10;;;;;;5002230;28;20046;-68
2023/04/04 11:10:32;;;;;;;3.25;0.70;;;10.00;82.80;;;;;;5001961;28;20095;-69
2023/04/04 11:13:06;;;;;;;2.17;1.08;;;10.00;84.50;;;;;;5001975;28;20038;-68
2023/04/04 11:15:52;;;;;;;11.60;1.42;;;10.10;83.40;;;;;;5000914;28;20034;-70
2023/04/04 11:18:22;;;;;;;16.60;1.20;;;10.10;82.60;;;;;;5002032;28;20589;-68
2023/04/04 11:20:48;;;;;;;4.10;0.93;;;10.10;81.80;;;;;;5003724;28;20082;-68
2023/04/04 11:23:22;;;;;;;1.50;0.60;;;10.10;82.20;;;;;;5002087;28;20061;-68
2023/04/04 11:25:51;;;;;;;5.32;0.90;;;10.10;83.10;;;;;;5001675;28;20500;-71
2023/04/04 11:28:47;;;;;;;3.20;0.70;;;10.10;81.90;;;;;;5002129;28;20033;-67
2023/04/04 11:31:16;;;;;;;5.55;0.80;;;10.00;82.70;;;;;;4991904;28;20099;-67
2023/04/04 11:34:28;;;;;;;2.38;1.02;;;10.10;83.90;;;;;;5002449;28;20038;-68
2023/04/04 11:36:53;;;;;;;3.35;0.82;;;10.10;83.30;;;;;;4973950;28;20137;-68
2023/04/04 11:39:30;;;;;;;2.63;0.88;;;10.00;83.80;;;;;;4999001;28;20501;-68
2023/04/04 11:42:09;;;;;;;2.72;0.90;;;10.00;83.60;;;;;;5000298;28;20042;-69
2023/04/04 11:44:47;;;;;;;5.10;0.90;;;10.00;83.70;;;;;;4999833;28;20057;-66
2023/04/04 11:47:13;;;;;;;1.73;0.73;;;10.10;84.10;;;;;;4997905;28;20061;-67
2023/04/04 11:49:41;;;;;;;2.83;0.80;;;10.10;83.30;;;;;;5000668;28;20033;-68
2023/04/04 11:52:10;;;;;;;2.97;0.80;;;10.10;82.20;;;;;;4998939;28;20064;-67
2023/04/04 11:54:40;;;;;;;1.38;0.70;;;10.20;82.50;;;;;;5002151;28;20034;-68
2023/04/04 11:57:07;;;;;;;3.20;0.80;;;10.10;82.30;;;;;;5002551;28;20136;-68
2023/04/04 11:59:33;;;;;;;5.00;0.80;;;10.10;82.70;;;;;;5002153;28;20034;-68
2023/04/04 12:02:01;;;;;;;2.70;0.80;;;10.10;82.30;;;;;;5001545;28;20440;-68
2023/04/04 12:04:27;;;;;;;5.53;1.10;;;10.00;82.70;;;;;;5001955;28;20049;-69
2023/04/04 12:06:55;;;;;;;11.65;1.50;;;10.00;83.20;;;;;;5001983;28;20383;-68
2023/04/04 12:09:24;;;;;;;7.18;1.02;;;10.10;83.00;;;;;;5001323;28;20088;-68
2023/04/04 12:11:50;;;;;;;7.20;1.20;;;10.10;83.30;;;;;;5000422;28;20034;-68
2023/04/04 12:14:20;;;;;;;9.75;1.08;;;10.10;82.80;;;;;;5002050;28;20034;-67
2023/04/04 12:16:54;;;;;;;2.72;0.90;;;10.00;82.60;;;;;;5001357;28;20038;-68
2023/04/04 12:19:23;;;;;;;6.43;1.27;;;10.10;83.20;;;;;;4998701;28;20120;-68
2023/04/04 12:21:51;;;;;;;3.47;1.02;;;10.00;82.00;;;;;;5000494;28;20038;-68
2023/04/04 12:24:16;;;;;;;15.18;1.35;;;10.00;82.00;;;;;;5000165;28;20107;-70
2023/04/04 12:26:44;;;;;;;5.53;0.88;;;10.00;81.60;;;;;;5001312;28;20515;-69
2023/04/04 12:29:12;;;;;;;2.72;0.80;;;9.90;83.20;;;;;;5001474;28;20034;-68
2023/04/04 12:31:40;;;;;;;13.45;1.30;;;9.90;83.00;;;;;;5001834;28;20565;-68
2023/04/04 12:34:07;;;;;;;5.45;1.80;;;10.10;83.60;;;;;;5000831;28;20135;-69
2023/04/04 12:36:37;;;;;;;3.38;1.17;;;10.10;83.50;;;;;;5002715;28;20077;-68
2023/04/04 12:39:08;;;;;;;4.37;1.40;;;10.10;83.90;;;;;;5000515;28;20030;-70
2023/04/04 12:41:35;;;;;;;4.78;2.08;;;10.10;83.70;;;;;;4999732;28;20041;-67
2023/04/04 12:44:06;;;;;;;8.98;1.08;;;10.30;82.30;;;;;;5001687;28;20081;-68
2023/04/04 12:46:40;;;;;;;7.82;1.23;;;10.30;81.90;;;;;;4998065;28;20487;-68
2023/04/04 12:49:09;;;;;;;17.45;1.60;;;10.30;83.10;;;;;;5004278;28;20038;-70
2023/04/04 12:51:36;;;;;;;7.07;1.02;;;10.30;82.80;;;;;;5001150;28;20535;-68
2023/04/04 12:54:06;;;;;;;5.63;1.10;;;10.30;83.10;;;;;;5001126;28;20073;-70
2023/04/04 12:56:33;;;;;;;4.88;0.65;;;10.30;82.00;;;;;;5001025;28;20754;-68